Time;durP1;ratioP1;P1;durP2;ratioP2;P2;SDS_P1;SDS_P2;PMS_P1;PMS_P2;Temp;Humidity;BMP_temperature;BMP_pressure;BME280_temperature;BME280_humidity;BME280_pressure;Samples;Min_cycle;Max_cycle;Signal;HPM_P1;HPM_P2
2021/04/13 00:01:11;;;;;;;2.08;1.55;;;1.00;99.90;;;;;;5037918;28;20157;-74
2021/04/13 00:03:55;;;;;;;4.88;1.60;;;1.00;99.90;;;;;;5049974;28;20641;-74
2021/04/13 00:06:25;;;;;;;2.22;1.52;;;0.90;99.90;;;;;;5049823;28;20033;-74
2021/04/13 00:09:06;;;;;;;1.52;1.20;;;0.90;99.90;;;;;;5050340;28;20519;-74
2021/04/13 00:11:32;;;;;;;2.25;1.55;;;0.90;99.90;;;;;;5048852;28;20059;-74
2021/04/13 00:14:00;;;;;;;3.13;1.55;;;0.90;99.90;;;;;;5040373;28;20057;-74
2021/04/13 00:16:30;;;;;;;4.00;1.60;;;0.90;99.90;;;;;;5040047;28;20075;-74
2021/04/13 00:18:56;;;;;;;2.17;1.10;;;0.80;99.90;;;;;;5048169;28;20038;-74
2021/04/13 00:21:24;;;;;;;2.22;1.60;;;0.80;99.90;;;;;;5046786;28;20430;-74
2021/04/13 00:23:50;;;;;;;1.63;1.20;;;0.80;99.90;;;;;;5046089;28;20064;-74
2021/04/13 00:26:23;;;;;;;2.40;1.77;;;0.80;99.90;;;;;;5048526;28;20040;-74
2021/04/13 00:28:51;;;;;;;4.50;2.08;;;0.80;99.90;;;;;;5049981;28;20037;-74
2021/04/13 00:31:38;;;;;;;4.03;1.85;;;0.80;99.90;;;;;;5046925;28;20118;-74
2021/04/13 00:34:05;;;;;;;2.72;1.80;;;0.80;99.90;;;;;;5047164;28;20037;-74
2021/04/13 00:36:31;;;;;;;2.15;1.40;;;0.80;99.90;;;;;;5048160;28;20246;-74
2021/04/13 00:38:57;;;;;;;3.63;1.58;;;0.80;99.90;;;;;;5049140;28;20032;-74
2021/04/13 00:41:28;;;;;;;3.13;1.90;;;0.80;99.90;;;;;;5049275;28;20032;-74
2021/04/13 00:44:02;;;;;;;1.67;1.40;;;0.80;99.90;;;;;;5049840;28;20535;-74
2021/04/13 00:46:36;;;;;;;4.38;1.70;;;0.80;99.90;;;;;;5049073;28;20610;-74
2021/04/13 00:49:03;;;;;;;4.40;1.90;;;0.90;99.90;;;;;;5046119;28;20083;-74
2021/04/13 00:51:56;;;;;;;3.65;1.95;;;0.80;99.90;;;;;;5047846;28;20021;-74
2021/04/13 00:54:31;;;;;;;2.15;1.52;;;0.80;99.90;;;;;;5046449;28;20086;-74
2021/04/13 00:57:02;;;;;;;3.35;2.17;;;0.80;99.90;;;;;;5049188;28;20171;-74
2021/04/13 00:59:30;;;;;;;2.00;1.60;;;0.80;99.90;;;;;;5046853;28;20048;-75
2021/04/13 01:01:58;;;;;;;2.63;1.67;;;0.80;99.90;;;;;;5038896;28;20147;-74
2021/04/13 01:04:31;;;;;;;2.55;1.58;;;0.80;99.90;;;;;;5046747;28;20029;-74
2021/04/13 01:07:09;;;;;;;1.88;1.58;;;0.80;99.90;;;;;;5021297;28;20480;-74
2021/04/13 01:09:51;;;;;;;3.15;1.95;;;0.80;99.90;;;;;;5048685;28;20021;-74
2021/04/13 01:12:22;;;;;;;1.80;1.30;;;0.80;99.90;;;;;;5047474;28;20079;-74
2021/04/13 01:14:49;;;;;;;1.52;1.40;;;0.80;99.90;;;;;;5049582;28;20472;-74
2021/04/13 01:17:16;;;;;;;2.28;1.60;;;0.80;99.90;;;;;;5048799;28;20055;-74
2021/04/13 01:20:05;;;;;;;2.42;1.67;;;0.80;99.90;;;;;;5049242;28;20050;-74
2021/04/13 01:22:53;;;;;;;2.13;1.58;;;0.80;99.90;;;;;;5049103;28;20114;-74
2021/04/13 01:25:26;;;;;;;2.35;1.50;;;0.80;99.90;;;;;;5043621;28;20507;-74
2021/04/13 01:28:06;;;;;;;3.65;1.77;;;0.80;99.90;;;;;;5052975;28;20051;-74
2021/04/13 01:30:42;;;;;;;2.15;1.80;;;0.70;99.90;;;;;;5051208;28;20029;-74
2021/04/13 01:33:17;;;;;;;3.75;1.58;;;0.60;99.90;;;;;;5051124;28;20075;-74
2021/04/13 01:35:51;;;;;;;3.53;1.67;;;0.60;99.90;;;;;;5049491;28;20021;-74
2021/04/13 01:38:23;;;;;;;2.40;1.42;;;0.60;99.90;;;;;;5052618;28;20691;-74
2021/04/13 01:43:23;;;;;;;1.73;1.38;;;0.60;99.90;;;;;;5052819;28;20395;-74
2021/04/13 01:45:50;;;;;;;2.55;1.70;;;0.60;99.90;;;;;;5052879;28;20070;-74
2021/04/13 01:48:17;;;;;;;2.28;1.52;;;0.60;99.90;;;;;;5052488;28;20083;-74
2021/04/13 01:50:54;;;;;;;1.88;1.50;;;0.60;99.90;;;;;;5046174;28;20119;-74
2021/04/13 01:53:22;;;;;;;2.50;1.50;;;0.50;99.90;;;;;;5052917;28;20027;-74
2021/04/13 01:55:58;;;;;;;1.92;1.73;;;0.50;99.90;;;;;;5052834;28;20083;-74
2021/04/13 01:58:45;;;;;;;3.28;2.00;;;0.60;99.90;;;;;;5042206;28;20049;-74
2021/04/13 02:01:36;;;;;;;4.38;1.67;;;0.50;99.90;;;;;;5050604;28;20434;-74
2021/04/13 02:04:14;;;;;;;3.10;2.05;;;0.50;99.90;;;;;;5052592;28;20025;-74
2021/04/13 02:06:51;;;;;;;2.33;1.58;;;0.50;99.90;;;;;;5050927;28;20119;-74
2021/04/13 02:09:28;;;;;;;2.90;1.70;;;0.50;99.90;;;;;;5052622;28;20089;-74
2021/04/13 02:12:01;;;;;;;3.78;1.67;;;0.50;99.90;;;;;;5041574;28;20037;-74
2021/04/13 02:14:32;;;;;;;2.83;1.90;;;0.50;99.90;;;;;;5032369;28;20415;-74
2021/04/13 02:17:05;;;;;;;2.78;1.80;;;0.50;99.90;;;;;;5051762;28;20033;-74
2021/04/13 02:19:32;;;;;;;3.17;1.67;;;0.50;99.90;;;;;;5052595;28;20104;-75
2021/04/13 02:22:24;;;;;;;2.35;1.65;;;0.50;99.90;;;;;;5051614;28;20035;-74
2021/04/13 02:24:53;;;;;;;5.10;2.00;;;0.50;99.90;;;;;;5051238;28;20037;-74
2021/04/13 02:27:25;;;;;;;2.15;1.70;;;0.50;99.90;;;;;;5050544;28;20055;-74
2021/04/13 02:29:53;;;;;;;7.53;1.77;;;0.40;99.90;;;;;;5050930;28;20025;-74
2021/04/13 02:32:26;;;;;;;2.10;1.70;;;0.40;99.90;;;;;;5050683;28;20065;-74
2021/04/13 02:34:58;;;;;;;3.38;2.15;;;0.40;99.90;;;;;;5042677;28;20025;-74
2021/04/13 02:37:44;;;;;;;2.63;1.95;;;0.40;99.90;;;;;;5047324;28;20109;-74
2021/04/13 02:40:24;;;;;;;3.72;1.67;;;0.40;99.90;;;;;;5057749;28;20025;-74
2021/04/13 02:42:53;;;;;;;2.33;1.63;;;0.40;99.90;;;;;;5050350;28;20600;-74
2021/04/13 02:45:30;;;;;;;3.03;1.55;;;0.30;99.90;;;;;;5051861;28;20490;-74
2021/04/13 02:48:02;;;;;;;4.85;1.83;;;0.30;99.90;;;;;;5049144;28;20040;-74
2021/04/13 02:50:31;;;;;;;4.25;2.10;;;0.30;99.90;;;;;;5049519;28;20079;-74
2021/04/13 02:53:00;;;;;;;2.30;1.73;;;0.30;99.90;;;;;;5051962;28;20060;-74
2021/04/13 02:55:33;;;;;;;3.75;2.50;;;0.30;99.90;;;;;;5052034;28;20108;-74
2021/04/13 02:58:03;;;;;;;2.47;2.20;;;0.30;99.90;;;;;;5051346;28;20025;-74
2021/04/13 03:00:37;;;;;;;2.83;1.83;;;0.30;99.90;;;;;;5050522;28;20103;-74
2021/04/13 03:03:06;;;;;;;4.30;1.88;;;0.30;99.90;;;;;;5049194;28;20040;-74
2021/04/13 03:05:33;;;;;;;5.07;2.70;;;0.30;99.90;;;;;;5051540;28;20411;-74
2021/04/13 03:08:05;;;;;;;4.47;2.20;;;0.20;99.90;;;;;;5051042;28;20029;-74
2021/04/13 03:10:42;;;;;;;2.85;2.00;;;0.20;99.90;;;;;;5049204;28;20112;-74
2021/04/13 03:13:13;;;;;;;3.55;2.15;;;0.20;99.90;;;;;;5051572;28;20376;-74
2021/04/13 03:15:40;;;;;;;3.00;2.30;;;0.20;99.90;;;;;;5051356;28;20040;-74
2021/04/13 03:18:13;;;;;;;4.20;2.22;;;0.20;99.90;;;;;;5050899;28;20375;-74
2021/04/13 03:20:43;;;;;;;4.75;2.67;;;0.10;99.90;;;;;;5050688;28;20049;-74
2021/04/13 03:23:10;;;;;;;3.22;1.70;;;0.10;99.90;;;;;;5025367;28;20037;-74
2021/04/13 03:25:41;;;;;;;4.20;2.30;;;0.10;99.90;;;;;;5051328;28;20036;-74
2021/04/13 03:28:10;;;;;;;5.18;2.53;;;0.10;99.90;;;;;;5048676;28;20395;-74
2021/04/13 03:30:39;;;;;;;3.53;1.92;;;0.10;99.90;;;;;;5040663;28;20037;-74
2021/04/13 03:33:10;;;;;;;3.72;2.25;;;0.10;99.90;;;;;;5048872;28;20385;-74
2021/04/13 03:35:36;;;;;;;4.20;2.20;;;0.10;99.90;;;;;;5049791;28;20096;-74
2021/04/13 03:38:05;;;;;;;3.25;2.58;;;0.10;99.90;;;;;;5050568;28;20097;-74
2021/04/13 03:40:34;;;;;;;5.85;2.42;;;0.10;99.90;;;;;;5050098;28;20104;-74
2021/04/13 03:43:04;;;;;;;3.75;2.35;;;0.00;99.90;;;;;;5051039;28;20487;-74
2021/04/13 03:45:31;;;;;;;5.70;2.55;;;0.00;99.90;;;;;;5049043;28;20033;-74
2021/04/13 03:48:01;;;;;;;4.25;2.10;;;-0.10;99.90;;;;;;5050040;28;20036;-74
2021/04/13 03:50:30;;;;;;;5.97;2.60;;;-0.10;99.90;;;;;;5049019;28;20043;-74
2021/04/13 03:53:10;;;;;;;3.95;2.65;;;-0.10;99.90;;;;;;5051088;28;20036;-74
2021/04/13 03:55:36;;;;;;;4.68;2.60;;;-0.10;99.90;;;;;;5048663;28;20112;-74
2021/04/13 03:58:23;;;;;;;4.30;2.50;;;-0.20;99.90;;;;;;5048945;28;20020;-74
2021/04/13 04:00:51;;;;;;;3.60;2.30;;;-0.20;99.90;;;;;;5047741;28;20387;-74
2021/04/13 04:03:17;;;;;;;4.32;2.47;;;-0.20;99.90;;;;;;5049331;28;20032;-74
2021/04/13 04:05:56;;;;;;;3.20;2.03;;;-0.20;99.90;;;;;;5037848;28;20067;-75
2021/04/13 04:08:36;;;;;;;4.25;2.53;;;-0.20;99.90;;;;;;5049807;28;20036;-74
2021/04/13 04:11:03;;;;;;;5.13;2.55;;;-0.20;99.90;;;;;;5048055;28;20029;-74
2021/04/13 04:13:38;;;;;;;5.00;2.50;;;-0.20;99.90;;;;;;5049540;28;20781;-74
2021/04/13 04:16:15;;;;;;;4.07;2.85;;;-0.20;99.90;;;;;;5050171;28;20037;-74
2021/04/13 04:18:44;;;;;;;4.15;2.63;;;-0.20;99.90;;;;;;5049210;28;20415;-74
2021/04/13 04:21:37;;;;;;;4.78;2.78;;;-0.20;99.90;;;;;;5049555;28;20028;-74
2021/04/13 04:24:10;;;;;;;7.05;2.88;;;-0.20;99.90;;;;;;5050428;28;20047;-74
2021/04/13 04:26:51;;;;;;;4.03;2.53;;;-0.20;99.90;;;;;;5049643;28;20021;-74
2021/04/13 04:29:28;;;;;;;4.18;2.47;;;-0.20;99.90;;;;;;5039503;28;20021;-74
2021/04/13 04:31:55;;;;;;;3.20;2.30;;;-0.20;99.90;;;;;;5048054;28;20059;-74
2021/04/13 04:34:21;;;;;;;5.35;2.80;;;-0.10;99.90;;;;;;5050111;28;20033;-74
2021/04/13 04:36:49;;;;;;;4.43;2.75;;;-0.10;99.90;;;;;;5049685;28;20531;-74
2021/04/13 04:39:26;;;;;;;4.47;2.65;;;-0.10;99.90;;;;;;5050017;28;20418;-74
2021/04/13 04:41:55;;;;;;;6.95;3.25;;;-0.10;99.90;;;;;;5046569;28;20222;-74
2021/04/13 04:44:30;;;;;;;7.68;2.88;;;-0.10;99.90;;;;;;5049652;28;20112;-75
2021/04/13 04:47:00;;;;;;;5.82;3.38;;;-0.10;99.90;;;;;;5047537;28;20037;-74
2021/04/13 04:49:35;;;;;;;3.92;2.85;;;-0.10;99.90;;;;;;5048133;28;20041;-74
2021/04/13 04:52:00;;;;;;;3.47;2.60;;;-0.10;99.90;;;;;;5046808;28;20108;-74
2021/04/13 04:54:26;;;;;;;4.28;2.80;;;-0.10;99.90;;;;;;5049341;28;20120;-74
2021/04/13 04:56:52;;;;;;;3.83;2.50;;;-0.10;99.90;;;;;;5048551;28;20725;-74
2021/04/13 04:59:17;;;;;;;4.18;2.85;;;0.00;99.90;;;;;;5049676;28;20052;-74
2021/04/13 05:01:43;;;;;;;6.03;3.15;;;-0.10;99.90;;;;;;5048487;28;20040;-74
2021/04/13 05:04:09;;;;;;;7.45;3.67;;;0.00;99.90;;;;;;5049087;28;20033;-74
2021/04/13 05:06:34;;;;;;;5.45;3.55;;;0.00;99.90;;;;;;5046623;28;20033;-74
2021/04/13 05:09:00;;;;;;;7.10;3.42;;;0.10;99.90;;;;;;5049117;28;20062;-74
2021/04/13 05:11:26;;;;;;;5.28;3.60;;;0.10;99.90;;;;;;5048517;28;20036;-74
2021/04/13 05:13:52;;;;;;;7.32;3.53;;;0.10;99.90;;;;;;5048012;28;20531;-74
2021/04/13 05:16:19;;;;;;;6.18;3.63;;;0.20;99.90;;;;;;5047586;28;20492;-74
2021/04/13 05:18:45;;;;;;;5.50;3.80;;;0.20;99.90;;;;;;5047328;28;20508;-74
2021/04/13 05:21:11;;;;;;;6.13;3.78;;;0.30;99.90;;;;;;5045762;28;20082;-74
2021/04/13 05:23:37;;;;;;;5.60;3.50;;;0.40;99.90;;;;;;5030595;28;20415;-74
2021/04/13 05:26:04;;;;;;;7.55;3.72;;;0.40;99.90;;;;;;5049238;28;20041;-74
2021/04/13 05:28:30;;;;;;;5.45;3.80;;;0.50;99.90;;;;;;5048623;28;20036;-74
2021/04/13 05:30:56;;;;;;;5.05;3.70;;;0.50;99.90;;;;;;5044170;28;20041;-74
2021/04/13 05:33:24;;;;;;;4.80;3.42;;;0.60;99.90;;;;;;5047829;28;20063;-74
2021/04/13 05:35:50;;;;;;;5.15;3.33;;;0.70;99.90;;;;;;5047768;28;20460;-74
2021/04/13 05:38:23;;;;;;;6.88;3.40;;;0.80;99.90;;;;;;5047369;28;20694;-74
2021/04/13 05:40:49;;;;;;;8.15;4.10;;;0.80;99.90;;;;;;5046771;28;20022;-74
2021/04/13 05:43:17;;;;;;;6.28;3.80;;;0.90;99.90;;;;;;5049430;28;20055;-74
2021/04/13 05:45:45;;;;;;;7.18;3.80;;;1.00;99.90;;;;;;5047538;28;20033;-74
2021/04/13 05:48:11;;;;;;;5.15;3.22;;;1.10;99.90;;;;;;5047758;28;20025;-74
2021/04/13 05:50:39;;;;;;;7.60;4.18;;;1.20;99.90;;;;;;5047765;28;20040;-74
2021/04/13 05:53:05;;;;;;;6.30;4.18;;;1.40;99.90;;;;;;5048660;28;20036;-74
2021/04/13 05:55:31;;;;;;;6.18;3.50;;;1.50;99.90;;;;;;5043806;28;20033;-74
2021/04/13 05:58:07;;;;;;;6.53;4.07;;;1.70;99.90;;;;;;5047797;28;20392;-74
2021/04/13 06:00:33;;;;;;;7.35;3.75;;;2.00;99.90;;;;;;5047946;28;20060;-74
2021/04/13 06:03:00;;;;;;;4.90;3.10;;;2.30;99.90;;;;;;5038282;28;20033;-74
2021/04/13 06:05:28;;;;;;;7.43;3.53;;;2.60;99.90;;;;;;5049039;28;20086;-74
2021/04/13 06:07:55;;;;;;;5.53;3.90;;;2.80;99.90;;;;;;5048420;28;20384;-74
2021/04/13 06:10:23;;;;;;;5.60;3.58;;;3.10;99.90;;;;;;5052236;28;20025;-74
2021/04/13 06:12:51;;;;;;;6.15;3.45;;;3.40;99.90;;;;;;5042945;28;20025;-74
2021/04/13 06:15:18;;;;;;;5.53;3.58;;;3.70;99.90;;;;;;5052243;28;20538;-74
2021/04/13 06:17:44;;;;;;;6.97;3.40;;;3.90;99.90;;;;;;5051266;28;20024;-74
2021/04/13 06:20:11;;;;;;;5.20;3.85;;;4.30;99.90;;;;;;5050353;28;20365;-74
2021/04/13 06:22:37;;;;;;;5.75;3.72;;;4.60;99.90;;;;;;5050553;28;20033;-74
2021/04/13 06:25:03;;;;;;;5.97;3.78;;;5.00;99.90;;;;;;5051740;28;20033;-74
2021/04/13 06:27:29;;;;;;;4.90;3.55;;;5.40;99.90;;;;;;5051136;28;20029;-74
2021/04/13 06:29:54;;;;;;;5.60;3.42;;;5.60;99.90;;;;;;5052048;28;20479;-74
2021/04/13 06:32:21;;;;;;;4.65;3.03;;;5.70;99.90;;;;;;5051247;28;20037;-74
2021/04/13 06:34:47;;;;;;;5.35;3.85;;;5.90;99.90;;;;;;5051711;28;20025;-74
2021/04/13 06:37:13;;;;;;;5.55;3.88;;;5.90;99.90;;;;;;5049095;28;20223;-74
2021/04/13 06:39:39;;;;;;;3.97;3.35;;;6.00;99.90;;;;;;5021133;28;20025;-74
2021/04/13 06:42:10;;;;;;;5.00;3.58;;;6.10;99.90;;;;;;5046424;28;20031;-74
2021/04/13 06:45:00;;;;;;;5.10;4.10;;;6.10;99.90;;;;;;5050099;28;20040;-74
2021/04/13 06:48:03;;;;;;;6.28;4.13;;;6.50;99.90;;;;;;5050706;28;20029;-74
2021/04/13 06:51:14;;;;;;;5.95;3.70;;;6.90;99.90;;;;;;5049247;28;20037;-74
2021/04/13 06:54:06;;;;;;;5.05;3.92;;;7.40;99.90;;;;;;5044626;28;20127;-74
2021/04/13 06:56:54;;;;;;;5.38;3.30;;;7.90;99.90;;;;;;5050639;28;20079;-74
2021/04/13 06:59:28;;;;;;;6.00;4.00;;;8.30;99.90;;;;;;5051493;28;20031;-74
2021/04/13 07:02:00;;;;;;;6.68;3.53;;;8.60;99.90;;;;;;5050031;28;20548;-74
2021/04/13 07:05:00;;;;;;;8.98;5.55;;;8.90;99.90;;;;;;5049295;28;20104;-74
2021/04/13 07:07:37;;;;;;;7.22;4.28;;;9.10;99.90;;;;;;5043478;28;20037;-74
2021/04/13 07:10:18;;;;;;;5.28;3.83;;;9.20;99.90;;;;;;5046186;28;20068;-74
2021/04/13 07:12:48;;;;;;;5.15;3.80;;;9.30;99.90;;;;;;5048029;28;20029;-74
2021/04/13 07:15:31;;;;;;;6.25;4.15;;;9.60;99.90;;;;;;5055544;28;20028;-74
2021/04/13 07:18:05;;;;;;;5.35;3.70;;;9.80;99.90;;;;;;5047686;28;20035;-74
2021/04/13 07:20:36;;;;;;;6.63;4.68;;;10.00;99.90;;;;;;5046314;28;20025;-74
2021/04/13 07:23:08;;;;;;;6.22;4.03;;;10.30;99.90;;;;;;5047027;28;20488;-74
2021/04/13 07:25:50;;;;;;;7.13;5.03;;;10.70;99.80;;;;;;5043097;28;20025;-74
2021/04/13 07:28:30;;;;;;;6.47;4.60;;;11.00;96.50;;;;;;5045301;28;20037;-74
2021/04/13 07:31:00;;;;;;;5.70;3.95;;;11.30;95.90;;;;;;5046224;28;20044;-74
2021/04/13 07:33:29;;;;;;;5.28;4.13;;;11.70;93.40;;;;;;5048210;28;20033;-74
2021/04/13 07:36:02;;;;;;;7.20;4.35;;;12.10;90.40;;;;;;5047474;28;20658;-74
2021/04/13 07:38:38;;;;;;;6.53;4.13;;;12.40;91.40;;;;;;5047845;28;20112;-74
2021/04/13 07:41:33;;;;;;;6.38;4.55;;;12.70;83.50;;;;;;5047719;28;20095;-74
2021/04/13 07:44:24;;;;;;;5.57;4.03;;;13.10;80.70;;;;;;5054583;28;20140;-74
2021/04/13 07:47:08;;;;;;;7.53;4.43;;;12.40;71.00;;;;;;5046895;28;20383;-73
2021/04/13 07:49:43;;;;;;;6.55;4.35;;;11.30;75.10;;;;;;5048256;28;20029;-75
2021/04/13 07:52:33;;;;;;;5.63;4.03;;;10.80;79.70;;;;;;5049856;28;20491;-75
2021/04/13 07:55:11;;;;;;;6.50;4.47;;;10.80;79.20;;;;;;5050722;28;20037;-74
2021/04/13 07:57:43;;;;;;;7.10;3.90;;;10.50;80.80;;;;;;5046945;28;20032;-73
2021/04/13 08:00:14;;;;;;;7.90;4.40;;;10.20;80.80;;;;;;5036796;28;20111;-74
2021/04/13 08:02:45;;;;;;;5.95;3.78;;;9.70;77.60;;;;;;5054770;28;20028;-73
2021/04/13 08:05:11;;;;;;;6.05;4.07;;;9.00;81.20;;;;;;5050149;28;20377;-73
2021/04/13 08:07:41;;;;;;;8.93;4.57;;;8.50;85.90;;;;;;5048129;28;20391;-74
2021/04/13 08:10:28;;;;;;;6.43;3.80;;;8.30;88.20;;;;;;5044988;28;20022;-74
2021/04/13 08:12:55;;;;;;;5.05;3.65;;;8.10;87.90;;;;;;5049629;28;20556;-73
2021/04/13 08:15:48;;;;;;;5.43;3.78;;;8.00;90.00;;;;;;5048338;28;20013;-73
2021/04/13 08:18:19;;;;;;;6.72;4.43;;;8.00;89.60;;;;;;5047203;28;20032;-73
2021/04/13 08:20:46;;;;;;;6.45;3.55;;;8.00;89.60;;;;;;5053863;28;20033;-74
2021/04/13 08:23:36;;;;;;;5.75;3.88;;;7.90;89.30;;;;;;5048656;28;20024;-74
2021/04/13 08:26:25;;;;;;;5.35;4.05;;;7.90;90.50;;;;;;5049287;28;20047;-74
2021/04/13 08:29:10;;;;;;;9.18;4.50;;;7.80;90.90;;;;;;5048645;28;20403;-73
2021/04/13 08:35:31;;;;;;;7.65;4.38;;;6.90;92.30;;;;;;5047793;28;20060;-74
2021/04/13 08:38:16;;;;;;;5.55;3.88;;;6.90;94.00;;;;;;5045509;28;20049;-74
2021/04/13 08:41:02;;;;;;;6.47;4.63;;;7.10;94.00;;;;;;5041106;28;20548;-73
2021/04/13 08:43:40;;;;;;;7.70;4.47;;;7.10;91.50;;;;;;5043748;28;20363;-74
2021/04/13 08:46:26;;;;;;;6.38;4.25;;;7.20;94.00;;;;;;5033408;28;20585;-73
2021/04/13 08:48:59;;;;;;;10.13;4.50;;;7.30;93.80;;;;;;5043775;28;20060;-73
2021/04/13 08:51:45;;;;;;;6.45;4.00;;;7.40;96.40;;;;;;5043776;28;20025;-73
2021/04/13 08:54:32;;;;;;;;;;;7.70;96.60;;;;;;5042332;28;20033;-74
2021/04/13 08:57:04;;;;;;;6.38;4.80;;;8.00;95.20;;;;;;5040790;28;19909;-73
2021/04/13 08:59:44;;;;;;;6.60;4.50;;;8.00;92.50;;;;;;5043253;28;20029;-73
2021/04/13 09:02:24;;;;;;;6.57;4.00;;;7.70;93.80;;;;;;5044211;28;20017;-73
2021/04/13 09:05:10;;;;;;;6.07;4.38;;;7.70;93.30;;;;;;5042825;28;20025;-73
2021/04/13 09:07:47;;;;;;;7.88;4.80;;;7.60;91.00;;;;;;5045089;28;20044;-73
2021/04/13 09:10:26;;;;;;;7.20;4.00;;;7.40;92.20;;;;;;5044652;28;20025;-74
2021/04/13 09:13:10;;;;;;;6.43;4.20;;;7.30;93.90;;;;;;5043872;28;20110;-73
2021/04/13 09:15:56;;;;;;;6.75;4.20;;;7.30;91.90;;;;;;5042708;28;20161;-74
2021/04/13 09:18:47;;;;;;;5.15;3.80;;;7.20;93.00;;;;;;5043697;28;20072;-74
2021/04/13 09:21:25;;;;;;;8.88;3.97;;;7.20;94.80;;;;;;5044556;28;20228;-74
2021/04/13 09:24:40;;;;;;;5.78;3.78;;;7.30;96.60;;;;;;5038964;28;20057;-73
2021/04/13 09:27:25;;;;;;;6.70;3.50;;;7.30;94.90;;;;;;5027337;28;20041;-72
2021/04/13 09:29:55;;;;;;;7.37;3.77;;;7.30;93.60;;;;;;5045269;28;20025;-73
2021/04/13 09:32:27;;;;;;;3.58;2.75;;;7.10;94.20;;;;;;5040539;28;20279;-73
2021/04/13 09:35:22;;;;;;;3.17;2.72;;;7.10;90.50;;;;;;5044886;28;20029;-73
2021/04/13 09:38:15;;;;;;;3.65;2.50;;;7.00;90.00;;;;;;5040457;28;20415;-73
2021/04/13 09:40:53;;;;;;;4.63;3.08;;;6.90;90.20;;;;;;5041893;28;20083;-73
2021/04/13 09:43:59;;;;;;;4.00;3.08;;;6.90;92.70;;;;;;5045248;28;20480;-72
2021/04/13 09:47:02;;;;;;;4.00;3.08;;;7.00;93.40;;;;;;5046828;28;20025;-72
2021/04/13 09:49:46;;;;;;;2.90;2.60;;;7.00;92.00;;;;;;5043819;28;20476;-74
2021/04/13 09:52:34;;;;;;;3.30;2.20;;;6.90;92.00;;;;;;5045408;28;20056;-73
2021/04/13 09:55:14;;;;;;;5.15;2.65;;;7.00;92.80;;;;;;5045170;28;20032;-74
2021/04/13 09:57:51;;;;;;;5.68;2.28;;;7.10;92.20;;;;;;5047845;28;20492;-74
2021/04/13 10:00:28;;;;;;;4.13;2.80;;;7.10;92.70;;;;;;5048386;28;20021;-74
2021/04/13 10:03:20;;;;;;;4.80;2.47;;;7.30;92.90;;;;;;5041689;28;20035;-74
2021/04/13 10:05:48;;;;;;;4.82;2.38;;;7.50;94.20;;;;;;5048259;28;20482;-74
2021/04/13 10:08:33;;;;;;;4.53;2.45;;;7.60;93.20;;;;;;5047660;28;20500;-74
2021/04/13 10:11:35;;;;;;;3.13;2.05;;;7.60;90.10;;;;;;5044954;28;20030;-72
2021/04/13 10:14:32;;;;;;;5.07;2.33;;;7.70;91.20;;;;;;5046823;28;20446;-73
2021/04/13 10:17:52;;;;;;;2.47;2.00;;;7.80;86.50;;;;;;5044585;28;20041;-73
2021/04/13 10:20:54;;;;;;;3.10;2.10;;;7.60;85.60;;;;;;5024825;28;20025;-73
2021/04/13 10:23:55;;;;;;;3.10;2.13;;;7.50;88.80;;;;;;5045989;28;20024;-72
2021/04/13 10:26:58;;;;;;;3.38;2.15;;;7.30;90.60;;;;;;5047987;28;20048;-72
2021/04/13 10:29:52;;;;;;;2.47;1.88;;;7.30;92.10;;;;;;5047527;28;20025;-75
2021/04/13 10:32:36;;;;;;;3.83;1.80;;;7.30;84.30;;;;;;5047075;28;20047;-73
2021/04/13 10:35:40;;;;;;;6.32;1.80;;;7.30;83.50;;;;;;5046423;28;20021;-73
2021/04/13 10:38:12;;;;;;;1.98;1.50;;;7.20;84.80;;;;;;5022430;28;20043;-73
2021/04/13 10:40:55;;;;;;;2.65;1.65;;;7.40;87.10;;;;;;5046386;28;20055;-73
2021/04/13 10:44:08;;;;;;;2.88;1.80;;;7.50;87.20;;;;;;5044831;28;20087;-74
2021/04/13 10:46:56;;;;;;;3.17;1.88;;;7.70;86.20;;;;;;5035096;28;20037;-72
2021/04/13 10:49:55;;;;;;;3.50;1.63;;;7.90;91.20;;;;;;5044935;28;20021;-72
2021/04/13 10:52:39;;;;;;;3.47;1.55;;;8.00;82.90;;;;;;5045568;28;20075;-72
2021/04/13 10:55:04;;;;;;;2.15;1.50;;;8.10;83.00;;;;;;5045622;28;20052;-72
2021/04/13 10:58:04;;;;;;;2.38;1.88;;;8.00;88.30;;;;;;5046094;28;20515;-72
2021/04/13 11:00:40;;;;;;;2.08;1.55;;;8.10;86.50;;;;;;5046054;28;20071;-72
2021/04/13 11:03:44;;;;;;;2.38;1.83;;;8.10;90.10;;;;;;5044104;28;20306;-72
2021/04/13 11:06:31;;;;;;;2.50;1.80;;;8.30;88.70;;;;;;5043444;28;20102;-72
2021/04/13 11:09:05;;;;;;;3.28;1.40;;;8.40;85.30;;;;;;5042775;28;20116;-72
2021/04/13 11:11:53;;;;;;;2.13;1.38;;;8.40;81.90;;;;;;5058480;28;20029;-72
2021/04/13 11:14:40;;;;;;;2.88;1.90;;;8.40;82.20;;;;;;5041231;28;20036;-72
2021/04/13 11:17:05;;;;;;;8.45;4.28;;;8.60;85.80;;;;;;5042399;28;20032;-72
2021/04/13 11:20:13;;;;;;;1.85;1.52;;;8.80;81.20;;;;;;5034223;28;20028;-72
2021/04/13 11:22:48;;;;;;;2.22;1.70;;;8.90;73.10;;;;;;5045382;28;20380;-72
2021/04/13 11:25:42;;;;;;;1.30;1.20;;;8.90;79.90;;;;;;5046958;28;20040;-72
2021/04/13 11:28:45;;;;;;;1.90;1.38;;;8.90;75.50;;;;;;5045424;28;20112;-73
2021/04/13 11:31:25;;;;;;;1.52;1.10;;;8.80;81.50;;;;;;5042357;28;20025;-74
2021/04/13 11:34:15;;;;;;;1.15;1.00;;;8.80;73.50;;;;;;5044620;28;20036;-74
2021/04/13 11:36:55;;;;;;;1.40;0.95;;;8.70;71.80;;;;;;5042740;28;20040;-74
2021/04/13 11:39:41;;;;;;;3.08;1.40;;;8.40;73.10;;;;;;5045192;28;20028;-73
2021/04/13 11:42:16;;;;;;;1.48;0.70;;;8.20;74.50;;;;;;5045162;28;20025;-72
2021/04/13 11:45:14;;;;;;;1.50;1.20;;;8.00;77.20;;;;;;5044789;28;20024;-72
2021/04/13 11:48:09;;;;;;;1.20;1.05;;;8.10;79.70;;;;;;5044842;28;20035;-72
2021/04/13 11:50:55;;;;;;;1.50;1.20;;;8.20;84.10;;;;;;5045974;28;20033;-72
2021/04/13 11:53:32;;;;;;;1.95;1.25;;;8.40;80.70;;;;;;5042794;28;20033;-73
2021/04/13 11:55:59;;;;;;;2.13;1.25;;;8.60;76.40;;;;;;5045543;28;20051;-73
2021/04/13 11:58:33;;;;;;;1.02;0.90;;;8.50;75.20;;;;;;5044314;28;20110;-77
2021/04/13 12:01:14;;;;;;;3.25;1.38;;;8.50;74.40;;;;;;5043237;28;20017;-72
2021/04/13 12:04:02;;;;;;;1.95;1.20;;;8.40;70.90;;;;;;5043790;28;20025;-73
2021/04/13 12:06:55;;;;;;;2.83;0.95;;;8.20;72.90;;;;;;5051806;28;20032;-74
2021/04/13 12:10:00;;;;;;;1.25;1.00;;;8.20;75.70;;;;;;5043412;28;20029;-73
2021/04/13 12:12:32;;;;;;;6.43;1.75;;;8.00;73.90;;;;;;5042688;28;20040;-72
2021/04/13 12:15:01;;;;;;;2.70;1.05;;;7.80;72.40;;;;;;5042234;28;20033;-73
2021/04/13 12:17:44;;;;;;;1.00;0.90;;;7.60;78.40;;;;;;5042268;28;20022;-72
2021/04/13 12:20:43;;;;;;;0.90;0.80;;;7.60;77.80;;;;;;5038238;28;20098;-72
2021/04/13 12:23:12;;;;;;;0.52;0.52;;;7.70;80.70;;;;;;5042416;28;20435;-73
2021/04/13 12:25:43;;;;;;;2.88;0.70;;;7.70;78.00;;;;;;5043356;28;20086;-72
2021/04/13 12:28:15;;;;;;;0.85;0.80;;;7.90;73.60;;;;;;5040665;28;20032;-72
2021/04/13 12:30:43;;;;;;;1.73;0.55;;;8.20;76.80;;;;;;5042067;28;20083;-71
2021/04/13 12:33:24;;;;;;;1.90;0.80;;;8.50;65.70;;;;;;5043980;28;20035;-74
2021/04/13 12:35:55;;;;;;;2.20;0.80;;;8.60;68.40;;;;;;5044821;28;20076;-73
2021/04/13 12:38:42;;;;;;;0.75;0.68;;;8.60;66.10;;;;;;5043909;28;20082;-72
2021/04/13 12:41:32;;;;;;;0.95;0.57;;;8.80;69.10;;;;;;5045514;28;20071;-72
2021/04/13 12:44:10;;;;;;;0.60;0.60;;;9.00;66.20;;;;;;5043102;28;20136;-73
2021/04/13 12:46:36;;;;;;;0.95;0.50;;;9.20;73.00;;;;;;5042584;28;20388;-74
2021/04/13 12:49:29;;;;;;;1.52;0.70;;;9.60;61.00;;;;;;5046797;28;20029;-71
2021/04/13 12:52:21;;;;;;;1.10;0.80;;;9.60;58.10;;;;;;5044828;28;20017;-74
2021/04/13 12:54:47;;;;;;;0.95;0.70;;;9.50;60.00;;;;;;5046040;28;20036;-73
2021/04/13 12:57:23;;;;;;;0.80;0.47;;;9.30;62.90;;;;;;5044864;28;20108;-72
2021/04/13 13:00:07;;;;;;;3.33;0.80;;;9.20;65.70;;;;;;5034723;28;20017;-72
2021/04/13 13:02:35;;;;;;;1.95;0.60;;;9.00;65.10;;;;;;5036970;28;20040;-73
2021/04/13 13:05:24;;;;;;;2.65;0.93;;;8.80;67.00;;;;;;5044574;28;20032;-72
2021/04/13 13:08:00;;;;;;;1.17;0.55;;;8.60;66.10;;;;;;5059660;28;20043;-72
2021/04/13 13:10:38;;;;;;;0.60;0.60;;;8.50;69.90;;;;;;5044619;28;20534;-72
2021/04/13 13:13:23;;;;;;;2.15;0.60;;;8.60;67.20;;;;;;5045780;28;20044;-73
2021/04/13 13:15:49;;;;;;;0.73;0.50;;;9.00;67.70;;;;;;5042684;28;20432;-74
2021/04/13 13:18:40;;;;;;;0.70;0.40;;;9.30;64.80;;;;;;5028031;28;20478;-74
2021/04/13 13:21:44;;;;;;;0.50;0.50;;;9.50;67.90;;;;;;5047963;28;20063;-74
2021/04/13 13:24:26;;;;;;;1.90;0.50;;;9.70;62.20;;;;;;5045614;28;20072;-74
2021/04/13 13:26:52;;;;;;;0.60;0.50;;;10.00;61.60;;;;;;5050112;28;20158;-73
2021/04/13 13:29:18;;;;;;;0.30;0.30;;;10.10;63.10;;;;;;5049214;28;20078;-74
2021/04/13 13:31:44;;;;;;;0.52;0.47;;;10.20;63.10;;;;;;5049327;28;20107;-73
2021/04/13 13:34:17;;;;;;;0.30;0.30;;;10.10;58.70;;;;;;5050297;28;20178;-73
2021/04/13 13:36:45;;;;;;;1.95;0.52;;;9.70;58.70;;;;;;5044750;28;20742;-73
2021/04/13 13:39:29;;;;;;;0.45;0.40;;;9.40;61.90;;;;;;5047537;28;20095;-73
2021/04/13 13:42:04;;;;;;;1.42;0.50;;;9.20;67.40;;;;;;5049606;28;20055;-73
2021/04/13 13:44:51;;;;;;;0.70;0.60;;;9.00;69.30;;;;;;5049344;28;20159;-73
2021/04/13 13:47:32;;;;;;;0.40;0.40;;;8.90;71.20;;;;;;5048641;28;20139;-73
2021/04/13 13:50:20;;;;;;;1.65;0.75;;;9.20;69.90;;;;;;5049649;28;20025;-73
2021/04/13 13:52:49;;;;;;;0.50;0.38;;;9.50;64.90;;;;;;5049068;28;20025;-72